createdAt,value
2019-05-05T00:01:50.354Z,1.37
2019-05-05T00:04:28.271Z,1.30
2019-05-05T00:06:59.206Z,1.13
2019-05-05T00:09:30.158Z,1.73
2019-05-05T00:12:28.746Z,1.53
2019-05-05T00:15:10.543Z,1.07
2019-05-05T00:17:41.286Z,1.10
2019-05-05T00:20:14.023Z,2.20
2019-05-05T00:22:46.378Z,1.17
2019-05-05T00:25:17.575Z,1.87
2019-05-05T00:27:48.328Z,0.90
2019-05-05T00:30:18.641Z,1.40
2019-05-05T00:32:49.042Z,0.87
2019-05-05T00:35:20.071Z,1.43
2019-05-05T00:37:51.084Z,1.90
2019-05-05T00:40:21.818Z,1.73
2019-05-05T00:42:54.700Z,2.97
2019-05-05T00:45:25.646Z,0.87
2019-05-05T00:48:04.676Z,1.73
2019-05-05T00:50:35.959Z,1.23
2019-05-05T00:53:06.777Z,1.17
2019-05-05T00:55:37.652Z,1.50
2019-05-05T00:58:08.656Z,1.23
2019-05-05T01:00:46.973Z,1.30
2019-05-05T01:03:18.088Z,1.40
2019-05-05T01:05:55.340Z,1.73
2019-05-05T01:08:29.376Z,1.23
2019-05-05T01:11:01.403Z,1.50
2019-05-05T01:13:32.135Z,1.10
2019-05-05T01:16:04.796Z,1.50
2019-05-05T01:18:35.817Z,1.00
2019-05-05T01:21:07.225Z,1.90
2019-05-05T01:23:38.104Z,1.07
2019-05-05T01:26:09.923Z,1.43
2019-05-05T01:28:40.820Z,1.20
2019-05-05T01:31:15.498Z,1.73
2019-05-05T01:34:15.128Z,0.97
2019-05-05T01:36:47.081Z,1.20
2019-05-05T01:39:48.541Z,1.50
2019-05-05T01:42:19.889Z,0.80
2019-05-05T01:44:50.411Z,1.00
2019-05-05T01:47:21.571Z,1.33
2019-05-05T01:49:52.043Z,0.87
2019-05-05T01:52:25.284Z,1.20
2019-05-05T01:54:55.021Z,1.63
2019-05-05T01:57:27.185Z,1.17
2019-05-05T01:59:58.490Z,0.70
2019-05-05T02:02:29.486Z,1.43
2019-05-05T02:05:00.420Z,1.67
2019-05-05T02:07:31.362Z,1.23
2019-05-05T02:10:05.804Z,1.07
2019-05-05T02:12:35.392Z,3.20
2019-05-05T02:15:07.475Z,1.20
2019-05-05T02:17:39.645Z,1.43
2019-05-05T02:20:12.018Z,1.60
2019-05-05T02:22:44.557Z,1.00
2019-05-05T02:25:15.818Z,1.40
2019-05-05T02:27:46.492Z,1.20
2019-05-05T02:30:28.902Z,0.90
2019-05-05T02:33:06.240Z,2.90
2019-05-05T02:35:37.745Z,1.30
2019-05-05T02:38:07.636Z,1.00
2019-05-05T02:40:38.558Z,2.37
2019-05-05T02:43:10.373Z,3.00
2019-05-05T02:46:07.542Z,1.93
2019-05-05T02:48:40.930Z,2.30
2019-05-05T02:51:15.059Z,2.10
2019-05-05T02:53:47.846Z,1.23
2019-05-05T02:56:25.562Z,1.63
2019-05-05T02:59:00.684Z,1.60
2019-05-05T03:01:41.362Z,1.90
2019-05-05T03:04:14.090Z,2.23
2019-05-05T03:06:49.187Z,2.60
2019-05-05T03:09:24.234Z,2.50
2019-05-05T03:11:57.202Z,2.17
2019-05-05T03:14:30.878Z,2.37
2019-05-05T03:17:04.241Z,1.50
2019-05-05T03:19:35.610Z,1.40
2019-05-05T03:22:06.614Z,2.60
2019-05-05T03:24:38.514Z,2.40
2019-05-05T03:27:10.538Z,2.70
2019-05-05T03:29:43.993Z,1.63
2019-05-05T03:32:16.941Z,1.53
2019-05-05T03:34:49.116Z,1.67
2019-05-05T03:37:21.078Z,1.70
2019-05-05T03:39:59.028Z,2.00
2019-05-05T03:42:39.552Z,3.00
2019-05-05T03:45:24.419Z,3.50
2019-05-05T03:47:55.832Z,2.47
2019-05-05T03:50:27.537Z,4.20
2019-05-05T03:52:59.096Z,2.50
2019-05-05T03:55:30.394Z,2.60
2019-05-05T03:58:01.390Z,2.23
2019-05-05T04:01:11.842Z,3.90
2019-05-05T04:03:43.542Z,1.33
2019-05-05T04:06:16.759Z,1.60
2019-05-05T04:08:47.806Z,1.77
2019-05-05T04:11:18.718Z,1.90
2019-05-05T04:13:51.491Z,2.70
2019-05-05T04:16:27.761Z,1.57
2019-05-05T04:19:03.570Z,4.23
2019-05-05T04:21:36.789Z,1.67
2019-05-05T04:24:07.183Z,2.53
2019-05-05T04:26:37.469Z,3.47
2019-05-05T04:29:08.607Z,2.60
2019-05-05T04:31:39.973Z,1.77
2019-05-05T04:34:10.805Z,2.40
2019-05-05T04:36:41.655Z,2.67
2019-05-05T04:39:14.357Z,1.70
2019-05-05T04:41:45.175Z,3.00
2019-05-05T04:44:17.925Z,3.77
2019-05-05T04:46:49.315Z,2.40
2019-05-05T04:49:28.361Z,2.87
2019-05-05T04:51:59.957Z,4.23
2019-05-05T04:54:47.407Z,2.00
2019-05-05T04:57:19.847Z,3.17
2019-05-05T04:59:54.059Z,3.33
2019-05-05T05:02:34.857Z,1.90
2019-05-05T05:05:16.097Z,3.37
2019-05-05T05:07:46.836Z,3.27
2019-05-05T05:10:16.985Z,3.73
2019-05-05T05:12:47.702Z,2.83
2019-05-05T05:15:19.051Z,2.40
2019-05-05T05:18:05.356Z,5.10
2019-05-05T05:20:35.710Z,3.47
2019-05-05T05:23:06.201Z,2.40
2019-05-05T05:25:36.742Z,3.20
2019-05-05T05:28:07.277Z,3.20
2019-05-05T05:30:37.825Z,2.30
2019-05-05T05:33:08.351Z,2.47
2019-05-05T05:35:39.703Z,2.57
2019-05-05T05:38:10.854Z,3.47
2019-05-05T05:40:46.954Z,4.13
2019-05-05T05:43:22.765Z,1.80
2019-05-05T05:46:10.815Z,3.43
2019-05-05T05:48:47.711Z,2.13
2019-05-05T05:51:20.382Z,4.67
2019-05-05T05:53:50.708Z,3.27
2019-05-05T05:56:22.259Z,4.73
2019-05-05T05:58:54.242Z,4.07
2019-05-05T06:01:25.379Z,4.07
2019-05-05T06:03:56.122Z,3.57
2019-05-05T06:06:26.446Z,4.33
2019-05-05T06:08:57.394Z,3.77
2019-05-05T06:11:28.066Z,5.57
2019-05-05T06:13:58.442Z,4.53
2019-05-05T06:16:29.188Z,5.83
2019-05-05T06:18:59.646Z,4.07
2019-05-05T06:21:30.626Z,5.47
2019-05-05T06:24:01.825Z,4.10
2019-05-05T06:26:34.273Z,6.17
2019-05-05T06:29:04.726Z,4.87
2019-05-05T06:31:35.262Z,4.47
2019-05-05T06:34:07.438Z,4.83
2019-05-05T06:36:37.730Z,6.43
2019-05-05T06:39:09.914Z,5.97
2019-05-05T06:41:46.602Z,3.63
2019-05-05T06:44:33.853Z,3.60
2019-05-05T06:47:33.971Z,2.70
2019-05-05T06:50:05.734Z,4.33
2019-05-05T06:52:44.163Z,3.53
2019-05-05T06:55:08.646Z,4.03
2019-05-05T06:57:39.380Z,3.47
2019-05-05T07:00:10.120Z,2.03
2019-05-05T07:02:40.662Z,2.20
2019-05-05T07:05:10.984Z,3.27
2019-05-05T07:07:43.545Z,2.90
2019-05-05T07:10:14.507Z,2.50
2019-05-05T07:12:45.242Z,3.30
2019-05-05T07:15:16.593Z,4.03
2019-05-05T07:17:47.942Z,2.93
2019-05-05T07:20:18.483Z,2.57
2019-05-05T07:22:58.683Z,2.50
2019-05-05T07:25:24.135Z,4.03
2019-05-05T07:27:54.828Z,2.47
2019-05-05T07:30:26.155Z,2.20
2019-05-05T07:32:56.883Z,2.13
2019-05-05T07:36:00.268Z,3.13
2019-05-05T07:38:26.619Z,1.83
2019-05-05T07:40:57.075Z,3.60
2019-05-05T07:43:28.099Z,2.90
2019-05-05T07:45:58.977Z,2.17
2019-05-05T07:48:29.529Z,1.70
2019-05-05T07:51:02.860Z,2.40
2019-05-05T07:53:33.601Z,2.70
2019-05-05T07:56:07.518Z,1.50
2019-05-05T07:58:37.850Z,1.10
2019-05-05T08:01:08.319Z,2.27
2019-05-05T08:03:38.872Z,2.60
2019-05-05T08:06:09.047Z,1.80
2019-05-05T08:08:39.579Z,1.77
2019-05-05T08:11:10.523Z,1.00
2019-05-05T08:13:41.053Z,1.60
2019-05-05T08:16:21.819Z,1.50
2019-05-05T08:19:07.931Z,2.00
2019-05-05T08:21:38.670Z,1.93
2019-05-05T08:24:15.043Z,1.00
2019-05-05T08:27:14.338Z,1.93
2019-05-05T08:29:54.710Z,0.93
2019-05-05T08:32:28.721Z,1.23
2019-05-05T08:35:00.909Z,1.27
2019-05-05T08:37:34.259Z,1.33
2019-05-05T08:40:05.186Z,1.03
2019-05-05T08:42:36.606Z,1.83
2019-05-05T08:45:08.310Z,1.10
2019-05-05T08:47:39.080Z,1.30
2019-05-05T08:50:09.829Z,1.10
2019-05-05T08:52:40.782Z,0.80
2019-05-05T08:55:13.941Z,1.90
2019-05-05T08:57:44.734Z,0.80
2019-05-05T09:00:16.976Z,1.10
2019-05-05T09:02:48.028Z,1.00
2019-05-05T09:05:18.162Z,0.80
2019-05-05T09:07:49.303Z,1.77
2019-05-05T09:10:20.657Z,1.10
2019-05-05T09:12:54.122Z,1.30
2019-05-05T09:15:24.997Z,2.20
2019-05-05T09:17:55.890Z,1.47
2019-05-05T09:20:26.436Z,1.47
2019-05-05T09:22:57.356Z,1.20
2019-05-05T09:25:50.486Z,1.00
2019-05-05T09:28:26.354Z,1.80
2019-05-05T09:30:56.822Z,2.25
2019-05-05T09:33:28.026Z,2.07
2019-05-05T09:35:58.758Z,2.00
2019-05-05T09:38:30.386Z,2.20
2019-05-05T09:41:03.662Z,1.80
2019-05-05T09:43:34.491Z,2.00
2019-05-05T09:46:05.216Z,2.30
2019-05-05T09:48:36.066Z,2.33
2019-05-05T09:51:07.284Z,3.73
2019-05-05T09:53:38.248Z,1.80
2019-05-05T09:56:08.698Z,1.77
2019-05-05T09:58:39.500Z,1.40
2019-05-05T10:01:10.447Z,2.00
2019-05-05T10:03:41.588Z,3.30
2019-05-05T10:06:14.234Z,1.70
2019-05-05T10:08:44.921Z,2.07
2019-05-05T10:11:16.642Z,2.43
2019-05-05T10:13:46.996Z,1.90
2019-05-05T10:16:17.731Z,2.10
2019-05-05T10:18:48.274Z,2.00
2019-05-05T10:21:19.631Z,1.93
2019-05-05T10:23:53.944Z,1.87
2019-05-05T10:26:24.686Z,1.73
2019-05-05T10:28:55.931Z,2.33
2019-05-05T10:31:27.289Z,2.40
2019-05-05T10:34:01.114Z,1.90
2019-05-05T10:36:33.636Z,1.77
2019-05-05T10:39:09.860Z,2.27
2019-05-05T10:41:40.423Z,2.30
2019-05-05T10:44:11.624Z,3.00
2019-05-05T10:46:42.759Z,2.00
2019-05-05T10:49:13.925Z,1.80
2019-05-05T10:51:44.862Z,2.00
2019-05-05T10:54:15.758Z,1.87
2019-05-05T10:56:46.695Z,1.87
2019-05-05T10:59:23.821Z,2.03
2019-05-05T11:01:54.580Z,2.03
2019-05-05T11:04:25.727Z,2.50
2019-05-05T11:06:56.140Z,1.40
2019-05-05T11:09:27.157Z,1.93
2019-05-05T11:11:57.743Z,2.23
2019-05-05T11:14:28.483Z,1.97
2019-05-05T11:16:59.774Z,1.70
2019-05-05T11:19:30.972Z,1.97
2019-05-05T11:22:01.296Z,2.40
2019-05-05T11:24:32.045Z,2.60
2019-05-05T11:27:04.459Z,2.20
2019-05-05T11:29:38.861Z,1.87
2019-05-05T11:32:16.155Z,1.90
2019-05-05T11:34:46.447Z,1.80
2019-05-05T11:37:20.035Z,1.07
2019-05-05T11:39:50.552Z,1.20
2019-05-05T11:42:21.557Z,1.10
2019-05-05T11:44:52.102Z,2.00
2019-05-05T11:47:24.513Z,1.60
2019-05-05T11:49:56.812Z,1.97
2019-05-05T11:52:28.603Z,2.13
2019-05-05T11:55:09.782Z,1.63
2019-05-05T11:57:31.919Z,2.97
2019-05-05T12:00:03.867Z,1.13
2019-05-05T12:02:35.397Z,1.43
2019-05-05T12:05:05.868Z,1.53
2019-05-05T12:07:35.699Z,1.40
2019-05-05T12:10:08.685Z,1.67
2019-05-05T12:12:40.243Z,2.47
2019-05-05T12:15:13.351Z,1.97
2019-05-05T12:17:44.593Z,1.83
2019-05-05T12:20:19.267Z,1.43
2019-05-05T12:22:49.909Z,1.13
2019-05-05T12:25:37.951Z,1.27
2019-05-05T12:28:28.910Z,2.53
2019-05-05T12:31:03.565Z,1.33
2019-05-05T12:33:33.822Z,1.30
2019-05-05T12:36:04.714Z,1.77
2019-05-05T12:38:37.400Z,1.37
2019-05-05T12:41:07.769Z,1.43
2019-05-05T12:43:38.258Z,2.23
2019-05-05T12:46:16.364Z,2.47
2019-05-05T12:48:48.952Z,2.17
2019-05-05T12:51:19.253Z,1.40
2019-05-05T12:53:49.763Z,0.83
2019-05-05T12:56:20.558Z,1.80
2019-05-05T12:58:51.496Z,1.40
2019-05-05T13:01:26.438Z,1.90
2019-05-05T13:03:57.890Z,1.33
2019-05-05T13:06:28.422Z,1.37
2019-05-05T13:08:59.363Z,1.60
2019-05-05T13:11:30.516Z,1.87
2019-05-05T13:14:00.856Z,0.87
2019-05-05T13:16:31.581Z,0.90
2019-05-05T13:19:05.196Z,1.23
2019-05-05T13:21:54.236Z,1.00
2019-05-05T13:24:47.426Z,0.83
2019-05-05T13:27:27.645Z,1.40
2019-05-05T13:29:58.939Z,1.10
2019-05-05T13:32:30.086Z,1.00
2019-05-05T13:35:03.491Z,1.33
2019-05-05T13:37:34.562Z,1.00
2019-05-05T13:40:05.864Z,1.37
2019-05-05T13:42:36.724Z,1.00
2019-05-05T13:45:19.659Z,1.23
2019-05-05T13:47:51.092Z,1.33
2019-05-05T13:50:31.597Z,0.90
2019-05-05T13:53:03.902Z,0.97
2019-05-05T13:55:35.807Z,1.17
2019-05-05T13:58:08.747Z,1.13
2019-05-05T14:00:39.538Z,3.00
2019-05-05T14:03:10.680Z,1.10
2019-05-05T14:05:41.218Z,1.70
2019-05-05T14:08:11.967Z,1.40
2019-05-05T14:10:42.850Z,1.13
2019-05-05T14:13:15.212Z,1.40
2019-05-05T14:15:45.637Z,1.60
2019-05-05T14:18:16.540Z,1.30
2019-05-05T14:20:47.086Z,1.17
2019-05-05T14:23:19.663Z,1.50
2019-05-05T14:25:50.769Z,1.30
2019-05-05T14:28:23.447Z,1.20
2019-05-05T14:31:00.908Z,1.40
2019-05-05T14:33:47.371Z,1.60
2019-05-05T14:36:28.601Z,1.60
2019-05-05T14:39:00.305Z,1.30
2019-05-05T14:41:30.297Z,0.87
2019-05-05T14:44:01.109Z,1.10
2019-05-05T14:46:34.042Z,0.97
2019-05-05T14:49:05.842Z,1.07
2019-05-05T14:51:36.916Z,0.97
2019-05-05T14:54:07.868Z,1.00
2019-05-05T14:56:39.209Z,0.80
2019-05-05T14:59:09.666Z,0.97
2019-05-05T15:01:40.683Z,1.10
2019-05-05T15:04:13.459Z,1.07
2019-05-05T15:06:48.311Z,1.20
2019-05-05T15:09:41.195Z,1.07
2019-05-05T15:12:29.509Z,1.37
2019-05-05T15:15:00.033Z,1.33
2019-05-05T15:17:30.335Z,1.00
2019-05-05T15:20:00.821Z,1.60
2019-05-05T15:22:31.439Z,1.43
2019-05-05T15:25:01.170Z,1.00
2019-05-05T15:27:34.859Z,1.07
2019-05-05T15:30:05.921Z,1.70
2019-05-05T15:32:36.853Z,2.10
2019-05-05T15:35:07.797Z,1.80
2019-05-05T15:37:38.290Z,1.70
2019-05-05T15:40:08.391Z,1.20
2019-05-05T15:42:39.183Z,1.70
2019-05-05T15:45:10.951Z,1.30
2019-05-05T15:47:43.561Z,1.50
2019-05-05T15:50:15.124Z,1.73
2019-05-05T15:52:45.828Z,1.90
2019-05-05T15:55:16.566Z,1.60
2019-05-05T15:57:46.374Z,1.40
2019-05-05T16:00:17.064Z,1.40
2019-05-05T16:02:47.960Z,1.47
2019-05-05T16:05:19.319Z,1.37
2019-05-05T16:07:50.666Z,1.30
2019-05-05T16:10:23.250Z,1.40
2019-05-05T16:12:54.050Z,0.97
2019-05-05T16:15:47.670Z,1.67
2019-05-05T16:18:48.095Z,1.63
2019-05-05T16:21:34.615Z,1.67
2019-05-05T16:24:10.884Z,1.00
2019-05-05T16:26:41.626Z,1.20
2019-05-05T16:29:14.703Z,1.20
2019-05-05T16:31:45.354Z,1.33
2019-05-05T16:34:16.303Z,1.30
2019-05-05T16:36:46.618Z,1.10
2019-05-05T16:39:17.562Z,0.80
2019-05-05T16:41:48.450Z,1.40
2019-05-05T16:44:19.250Z,1.37
2019-05-05T16:46:49.770Z,1.50
2019-05-05T16:49:20.314Z,1.93
2019-05-05T16:52:00.867Z,1.10
2019-05-05T16:54:36.757Z,1.33
2019-05-05T16:57:07.478Z,1.60
2019-05-05T16:59:38.578Z,1.40
2019-05-05T17:02:09.362Z,1.27
2019-05-05T17:04:40.366Z,1.23
2019-05-05T17:07:10.607Z,1.07
2019-05-05T17:09:43.581Z,1.17
2019-05-05T17:12:14.207Z,1.27
2019-05-05T17:15:12.550Z,1.37
2019-05-05T17:17:57.624Z,0.80
2019-05-05T17:20:30.205Z,1.20
2019-05-05T17:23:07.043Z,1.10
2019-05-05T17:25:37.978Z,1.70
2019-05-05T17:28:09.184Z,1.30
2019-05-05T17:30:40.529Z,1.77
2019-05-05T17:33:11.407Z,1.90
2019-05-05T17:35:42.150Z,1.27
2019-05-05T17:38:15.563Z,1.40
2019-05-05T17:41:04.057Z,1.33
2019-05-05T17:44:03.423Z,1.67
2019-05-05T17:46:53.820Z,3.30
2019-05-05T17:49:43.497Z,1.03
2019-05-05T17:52:18.991Z,2.37
2019-05-05T17:54:53.802Z,1.93
2019-05-05T17:57:24.999Z,1.40
2019-05-05T17:59:55.508Z,0.93
2019-05-05T18:02:27.287Z,0.80
2019-05-05T18:04:58.415Z,1.33
2019-05-05T18:07:35.523Z,1.37
2019-05-05T18:10:19.893Z,0.70
2019-05-05T18:13:05.600Z,1.03
2019-05-05T18:15:54.997Z,1.60
2019-05-05T18:18:26.206Z,1.73
2019-05-05T18:20:56.683Z,1.47
2019-05-05T18:23:27.061Z,1.50
2019-05-05T18:25:57.939Z,1.33
2019-05-05T18:28:29.366Z,1.40
2019-05-05T18:31:01.397Z,1.60
2019-05-05T18:33:33.998Z,1.63
2019-05-05T18:36:04.801Z,1.37
2019-05-05T18:38:36.204Z,1.20
2019-05-05T18:41:13.929Z,1.47
2019-05-05T18:43:52.261Z,1.77
2019-05-05T18:46:24.321Z,2.30
2019-05-05T18:48:54.735Z,1.17
2019-05-05T18:51:25.840Z,1.37
2019-05-05T18:53:57.022Z,1.63
2019-05-05T18:56:28.167Z,2.13
2019-05-05T18:58:59.119Z,1.83
2019-05-05T19:01:45.830Z,1.80
2019-05-05T19:04:27.009Z,2.20
2019-05-05T19:07:09.009Z,1.50
2019-05-05T19:09:51.022Z,1.33
2019-05-05T19:12:11.926Z,1.57
2019-05-05T19:14:44.264Z,1.43
2019-05-05T19:17:15.648Z,1.67
2019-05-05T19:19:49.874Z,1.60
2019-05-05T19:22:20.611Z,1.47
2019-05-05T19:24:51.967Z,1.77
2019-05-05T19:27:24.079Z,1.20
2019-05-05T19:29:54.706Z,2.10
2019-05-05T19:32:26.018Z,1.97
2019-05-05T19:34:57.166Z,3.50
2019-05-05T19:37:27.639Z,2.67
2019-05-05T19:39:58.873Z,1.93
2019-05-05T19:42:29.930Z,1.80
2019-05-05T19:45:01.344Z,1.33
2019-05-05T19:47:34.010Z,1.90
2019-05-05T19:50:17.347Z,3.00
2019-05-05T19:52:48.132Z,2.00
2019-05-05T19:55:19.256Z,3.10
2019-05-05T19:57:50.042Z,2.57
2019-05-05T20:00:23.474Z,1.60
2019-05-05T20:03:03.704Z,3.27
2019-05-05T20:05:27.090Z,1.80
2019-05-05T20:07:57.998Z,1.47
2019-05-05T20:10:29.010Z,3.93
2019-05-05T20:13:00.158Z,2.77
2019-05-05T20:15:36.541Z,1.90
2019-05-05T20:18:07.506Z,1.60
2019-05-05T20:20:38.524Z,2.77
2019-05-05T20:23:09.242Z,3.00
2019-05-05T20:25:40.400Z,3.40
2019-05-05T20:28:10.966Z,2.23
2019-05-05T20:30:42.082Z,2.83
2019-05-05T20:33:19.588Z,2.70
2019-05-05T20:35:54.709Z,2.30
2019-05-05T20:38:31.306Z,1.90
2019-05-05T20:41:15.559Z,1.60
2019-05-05T20:43:47.316Z,2.13
2019-05-05T20:46:17.704Z,2.50
2019-05-05T20:48:48.593Z,1.67
2019-05-05T20:51:18.945Z,1.93
2019-05-05T20:53:49.481Z,1.40
2019-05-05T20:56:21.011Z,1.37
2019-05-05T20:58:51.940Z,1.50
2019-05-05T21:01:24.625Z,3.03
2019-05-05T21:03:55.810Z,1.87
2019-05-05T21:06:26.797Z,1.80
2019-05-05T21:08:56.890Z,2.20
2019-05-05T21:11:28.318Z,2.10
2019-05-05T21:13:58.121Z,3.00
2019-05-05T21:16:28.717Z,3.03
2019-05-05T21:18:59.497Z,2.93
2019-05-05T21:21:34.331Z,2.80
2019-05-05T21:24:04.928Z,1.20
2019-05-05T21:27:06.735Z,2.50
2019-05-05T21:29:42.217Z,2.57
2019-05-05T21:32:09.933Z,3.17
2019-05-05T21:34:40.932Z,2.67
2019-05-05T21:37:13.954Z,2.17
2019-05-05T21:39:45.464Z,1.93
2019-05-05T21:42:16.889Z,2.47
2019-05-05T21:44:48.063Z,1.23
2019-05-05T21:47:18.991Z,2.00
2019-05-05T21:49:49.732Z,3.67
2019-05-05T21:52:30.929Z,1.77
2019-05-05T21:55:14.441Z,2.20
2019-05-05T21:58:04.545Z,1.77
2019-05-05T22:01:04.525Z,2.13
2019-05-05T22:03:40.230Z,1.77
2019-05-05T22:06:11.375Z,2.20
2019-05-05T22:08:42.725Z,1.30
2019-05-05T22:11:14.624Z,3.00
2019-05-05T22:13:46.454Z,2.47
2019-05-05T22:16:17.607Z,2.07
2019-05-05T22:18:48.551Z,2.70
2019-05-05T22:21:36.128Z,3.10
2019-05-05T22:24:21.975Z,2.13
2019-05-05T22:26:54.180Z,2.00
2019-05-05T22:29:25.142Z,2.13
2019-05-05T22:31:55.419Z,1.83
2019-05-05T22:34:26.015Z,2.07
2019-05-05T22:36:56.689Z,1.90
2019-05-05T22:39:27.683Z,2.27
2019-05-05T22:41:58.574Z,2.80
2019-05-05T22:44:30.537Z,1.70
2019-05-05T22:47:00.666Z,2.50
2019-05-05T22:49:31.613Z,1.70
2019-05-05T22:52:03.791Z,1.70
2019-05-05T22:54:35.955Z,1.80
2019-05-05T22:57:06.423Z,2.47
2019-05-05T22:59:36.610Z,2.70
2019-05-05T23:02:07.142Z,1.63
2019-05-05T23:04:54.583Z,2.00
2019-05-05T23:07:28.830Z,1.27
2019-05-05T23:10:00.246Z,1.60
2019-05-05T23:12:31.400Z,2.50
2019-05-05T23:15:04.043Z,2.00
2019-05-05T23:17:58.273Z,1.97
2019-05-05T23:21:08.129Z,2.40
2019-05-05T23:23:56.472Z,1.63
2019-05-05T23:26:29.218Z,2.23
2019-05-05T23:28:59.814Z,1.97
2019-05-05T23:31:30.941Z,1.30
2019-05-05T23:34:03.834Z,2.43
2019-05-05T23:36:34.468Z,1.60
2019-05-05T23:39:06.674Z,2.27
2019-05-05T23:41:39.018Z,2.27
2019-05-05T23:44:10.372Z,2.37
2019-05-05T23:46:40.708Z,2.07
2019-05-05T23:49:13.640Z,1.00
2019-05-05T23:51:44.125Z,2.63
2019-05-05T23:54:14.757Z,3.00
2019-05-05T23:56:45.658Z,2.73
2019-05-05T23:59:16.450Z,2.07
